createdAt,value
2022-10-29T00:02:56.469Z,16.08
2022-10-29T00:08:18.269Z,12.48
2022-10-29T00:13:41.014Z,14.18
2022-10-29T00:19:03.049Z,13.40
2022-10-29T00:24:24.864Z,17.33
2022-10-29T00:29:46.676Z,14.23
2022-10-29T00:35:08.955Z,15.18
2022-10-29T00:40:31.096Z,14.50
2022-10-29T00:45:57.666Z,14.02
2022-10-29T00:56:54.746Z,13.77
2022-10-29T01:02:17.365Z,15.02
2022-10-29T01:07:39.631Z,13.95
2022-10-29T01:13:31.098Z,15.90
2022-10-29T01:19:13.652Z,14.85
2022-10-29T01:24:44.432Z,16.50
2022-10-29T01:30:09.344Z,13.60
2022-10-29T01:35:46.572Z,12.68
2022-10-29T01:41:34.056Z,13.07
2022-10-29T01:47:00.978Z,12.32
2022-10-29T01:52:24.167Z,13.90
2022-10-29T01:57:46.146Z,15.45
2022-10-29T02:03:10.873Z,10.98
2022-10-29T02:09:05.160Z,15.57
2022-10-29T02:14:36.370Z,15.02
2022-10-29T02:19:58.187Z,10.77
2022-10-29T02:25:20.077Z,12.15
2022-10-29T02:30:41.914Z,11.13
2022-10-29T02:36:04.114Z,13.52
2022-10-29T02:41:25.932Z,17.30
2022-10-29T02:46:47.759Z,11.52
2022-10-29T02:52:09.600Z,14.82
2022-10-29T02:57:31.496Z,11.15
2022-10-29T03:02:53.483Z,11.98
2022-10-29T03:08:15.610Z,15.82
2022-10-29T03:19:04.657Z,16.67
2022-10-29T03:24:26.473Z,14.02
2022-10-29T03:29:48.279Z,13.48
2022-10-29T03:35:12.017Z,13.20
2022-10-29T03:40:34.080Z,13.55
2022-10-29T03:45:57.758Z,12.75
2022-10-29T03:51:19.615Z,15.30
2022-10-29T03:56:41.455Z,12.70
2022-10-29T04:02:03.662Z,13.68
2022-10-29T04:07:25.680Z,14.07
2022-10-29T04:12:47.602Z,11.25
2022-10-29T04:18:10.652Z,13.95
2022-10-29T04:29:14.349Z,13.18
2022-10-29T04:34:36.168Z,10.68
2022-10-29T04:39:58.252Z,10.50
2022-10-29T04:45:20.084Z,13.38
2022-10-29T04:50:41.897Z,11.57
2022-10-29T04:56:03.898Z,19.30
2022-10-29T05:01:25.972Z,10.82
2022-10-29T05:06:47.938Z,10.68
2022-10-29T05:12:09.748Z,14.77
2022-10-29T05:17:31.871Z,10.38
2022-10-29T05:23:06.323Z,11.93
2022-10-29T05:28:28.183Z,13.02
2022-10-29T05:33:52.495Z,10.73
2022-10-29T05:39:17.408Z,11.63
2022-10-29T05:44:39.411Z,9.98
2022-10-29T05:50:01.221Z,11.73
2022-10-29T05:55:23.506Z,11.20
2022-10-29T06:00:45.377Z,12.27
2022-10-29T06:06:07.961Z,11.98
2022-10-29T06:11:29.876Z,8.40
2022-10-29T06:16:51.734Z,13.52
2022-10-29T06:22:13.547Z,10.27
2022-10-29T06:27:37.292Z,12.32
2022-10-29T06:33:00.053Z,11.82
2022-10-29T06:38:21.882Z,11.90
2022-10-29T06:43:44.054Z,14.05
2022-10-29T06:49:05.850Z,14.13
2022-10-29T06:54:27.678Z,15.48
2022-10-29T06:59:49.777Z,12.50
2022-10-29T07:05:11.935Z,14.85
2022-10-29T07:10:34.189Z,9.65
2022-10-29T07:15:56.088Z,11.80
2022-10-29T07:21:17.887Z,15.82
2022-10-29T07:26:39.804Z,12.18
2022-10-29T07:32:01.657Z,10.52
2022-10-29T07:37:23.501Z,13.20
2022-10-29T07:42:45.320Z,10.10
2022-10-29T07:48:07.332Z,11.20
2022-10-29T07:53:29.326Z,9.98
2022-10-29T07:58:51.159Z,9.82
2022-10-29T08:04:13.124Z,11.75
2022-10-29T08:09:35.054Z,9.60
2022-10-29T08:14:56.911Z,12.10
2022-10-29T08:20:19.812Z,14.15
2022-10-29T08:25:42.936Z,11.52
2022-10-29T08:31:04.992Z,13.88
2022-10-29T08:36:26.820Z,11.85
2022-10-29T08:41:51.589Z,14.05
2022-10-29T08:47:17.788Z,14.18
2022-10-29T08:52:52.995Z,12.13
2022-10-29T08:58:34.142Z,15.55
2022-10-29T09:03:56.045Z,10.07
2022-10-29T09:09:38.564Z,15.95
2022-10-29T09:15:23.284Z,14.48
2022-10-29T09:21:22.640Z,18.10
2022-10-29T09:27:20.911Z,12.63
2022-10-29T09:32:57.441Z,11.35
2022-10-29T09:38:24.001Z,13.18
2022-10-29T09:43:45.801Z,14.07
2022-10-29T09:49:39.583Z,16.13
2022-10-29T09:55:05.386Z,14.10
2022-10-29T10:00:32.018Z,14.97
2022-10-29T10:05:58.396Z,14.75
2022-10-29T10:16:42.100Z,17.55
2022-10-29T10:22:05.569Z,16.25
2022-10-29T10:27:31.140Z,24.98
2022-10-29T10:32:53.271Z,20.80
2022-10-29T10:38:15.939Z,26.00
2022-10-29T10:43:41.313Z,23.88
2022-10-29T10:49:17.777Z,20.45
2022-10-29T10:54:56.080Z,21.63
2022-10-29T11:00:21.117Z,21.80
2022-10-29T11:06:01.588Z,19.20
2022-10-29T11:11:30.997Z,19.52
2022-10-29T11:16:58.340Z,19.30
2022-10-29T11:22:44.249Z,18.83
2022-10-29T11:28:24.069Z,20.67
2022-10-29T11:33:56.614Z,21.70
2022-10-29T11:39:26.772Z,20.17
2022-10-29T11:44:48.792Z,19.83
2022-10-29T11:50:10.556Z,19.83
2022-10-29T11:56:21.310Z,19.25
2022-10-29T12:01:55.161Z,18.50
2022-10-29T12:07:39.714Z,18.75
2022-10-29T12:13:24.627Z,19.15
2022-10-29T12:19:07.061Z,13.32
2022-10-29T12:25:01.493Z,19.25
2022-10-29T12:30:24.197Z,11.38
2022-10-29T12:35:56.145Z,14.90
2022-10-29T12:41:25.329Z,12.27
2022-10-29T12:46:52.855Z,16.38
2022-10-29T12:52:53.122Z,15.63
2022-10-29T12:58:44.034Z,14.43
2022-10-29T13:04:23.007Z,15.45
2022-10-29T13:09:48.267Z,14.27
2022-10-29T13:15:12.822Z,14.40
2022-10-29T13:20:39.368Z,12.52
2022-10-29T13:26:02.549Z,10.25
2022-10-29T13:31:24.336Z,13.45
2022-10-29T13:36:46.213Z,11.45
2022-10-29T13:42:13.037Z,14.27
2022-10-29T13:47:35.245Z,9.80
2022-10-29T13:53:00.757Z,12.77
2022-10-29T13:58:32.092Z,14.40
2022-10-29T14:04:22.239Z,11.65
2022-10-29T14:09:48.432Z,9.65
2022-10-29T14:15:13.266Z,11.15
2022-10-29T14:20:35.086Z,10.82
2022-10-29T14:25:59.463Z,9.50
2022-10-29T14:31:23.283Z,9.77
2022-10-29T14:36:48.140Z,8.77
2022-10-29T14:47:51.383Z,10.87
2022-10-29T14:53:31.525Z,12.52
2022-10-29T14:58:53.479Z,12.30
2022-10-29T15:04:33.287Z,14.45
2022-10-29T15:10:25.789Z,11.18
2022-10-29T15:16:02.035Z,11.70
2022-10-29T15:21:26.497Z,13.73
2022-10-29T15:26:52.890Z,11.95
2022-10-29T15:32:16.977Z,13.40
2022-10-29T15:37:43.281Z,16.42
2022-10-29T15:43:27.212Z,18.70
2022-10-29T15:48:49.049Z,15.20
2022-10-29T15:54:13.655Z,13.70
2022-10-29T15:59:35.471Z,14.77
2022-10-29T16:04:57.346Z,17.35
2022-10-29T16:10:21.463Z,16.05
2022-10-29T16:15:44.379Z,16.50
2022-10-29T16:21:06.719Z,17.58
2022-10-29T16:26:28.567Z,16.05
2022-10-29T16:31:50.412Z,18.52
2022-10-29T16:37:19.463Z,16.75
2022-10-29T16:42:41.827Z,13.30
2022-10-29T16:48:03.853Z,16.75
2022-10-29T16:53:25.766Z,12.65
2022-10-29T16:58:47.615Z,14.65
2022-10-29T17:04:09.602Z,15.60
2022-10-29T17:09:31.520Z,17.20
2022-10-29T17:14:53.354Z,14.75
2022-10-29T17:20:15.346Z,14.30
2022-10-29T17:25:40.293Z,14.23
2022-10-29T17:31:05.323Z,14.55
2022-10-29T17:36:27.137Z,13.65
2022-10-29T17:41:49.812Z,14.30
2022-10-29T17:47:11.658Z,14.88
2022-10-29T17:52:33.492Z,13.70
2022-10-29T17:57:55.713Z,21.35
2022-10-29T18:03:18.412Z,12.77
2022-10-29T18:08:42.035Z,12.75
2022-10-29T18:14:03.942Z,14.00
2022-10-29T18:19:25.772Z,12.50
2022-10-29T18:24:47.630Z,13.32
2022-10-29T18:30:09.816Z,15.25
2022-10-29T18:35:31.649Z,16.48
2022-10-29T18:40:55.091Z,13.25
2022-10-29T18:46:17.964Z,12.13
2022-10-29T18:51:40.086Z,11.27
2022-10-29T18:57:01.914Z,16.42
2022-10-29T19:02:23.944Z,10.77
2022-10-29T19:07:45.878Z,13.57
2022-10-29T19:13:08.279Z,15.82
2022-10-29T19:18:31.395Z,13.10
2022-10-29T19:23:57.834Z,13.68
2022-10-29T19:29:19.679Z,16.52
2022-10-29T19:34:41.492Z,13.65
2022-10-29T19:40:03.919Z,12.25
2022-10-29T19:45:25.781Z,12.15
2022-10-29T19:50:51.620Z,13.25
2022-10-29T19:56:15.675Z,14.13
2022-10-29T20:01:37.675Z,11.20
2022-10-29T20:06:59.601Z,13.40
2022-10-29T20:12:21.433Z,13.63
2022-10-29T20:17:43.267Z,11.93
2022-10-29T20:23:05.183Z,9.57
2022-10-29T20:28:27.023Z,13.25
2022-10-29T20:33:53.432Z,11.90
2022-10-29T20:39:15.725Z,15.32
2022-10-29T20:44:37.630Z,16.98
2022-10-29T20:49:59.490Z,14.13
2022-10-29T20:55:21.370Z,16.02
2022-10-29T21:00:43.311Z,15.23
2022-10-29T21:06:09.943Z,15.05
2022-10-29T21:11:34.270Z,16.65
2022-10-29T21:16:56.107Z,16.90
2022-10-29T21:22:17.924Z,16.92
2022-10-29T21:27:39.806Z,14.95
2022-10-29T21:33:01.619Z,13.50
2022-10-29T21:38:25.008Z,16.83
2022-10-29T21:43:46.832Z,13.93
2022-10-29T21:49:08.728Z,15.23
2022-10-29T21:54:30.592Z,18.52
2022-10-29T21:59:52.392Z,16.73
2022-10-29T22:05:14.257Z,14.65
2022-10-29T22:10:36.094Z,16.58
2022-10-29T22:15:58.308Z,14.93
2022-10-29T22:21:25.530Z,18.55
2022-10-29T22:26:47.338Z,20.98
2022-10-29T22:32:09.199Z,21.95
2022-10-29T22:37:31.040Z,18.52
2022-10-29T22:42:52.852Z,19.00
2022-10-29T22:48:14.672Z,17.73
2022-10-29T22:53:36.543Z,20.13
2022-10-29T22:58:59.683Z,17.55
2022-10-29T23:04:21.546Z,20.15
2022-10-29T23:09:43.337Z,20.50
2022-10-29T23:15:05.621Z,20.92
2022-10-29T23:20:27.419Z,19.45
2022-10-29T23:25:49.237Z,19.52
2022-10-29T23:31:14.140Z,18.27
2022-10-29T23:36:35.957Z,18.13
2022-10-29T23:41:57.760Z,23.33
2022-10-29T23:47:19.584Z,26.23
2022-10-29T23:52:41.439Z,21.75
2022-10-29T23:58:04.126Z,21.52
